RLTS3 YMES-YMES
Flight info
| Callsign | RLTS3 |
|---|---|
| Flight time | 1h 9m |
| Altitude | 6000 |
| Route | ESL DCT WSL DCT ESL |
| Aircraft | PC21/L-SDFGTUVY/C |
Departure
| Time | 2026-04-30 10:48 |
|---|---|
| Airport | RAAF Base East Sale (YMES) |
Arrival
| Time | 2026-04-30 11:57 |
|---|---|
| Airport | RAAF Base East Sale (YMES) |
| Time | Latitude | Longitude | Altitude | Speed | Heading |
|---|---|---|---|---|---|
| 2026-04-30 10:40 | -38.09905 | 147.13631 | 26 ft | 0 kts | 188° |
| 2026-04-30 10:42 | -38.09918 | 147.13628 | 27 ft | 2 kts | 198° |
| 2026-04-30 10:42 | -38.09922 | 147.13592 | 26 ft | 6 kts | 278° |
| 2026-04-30 10:43 | -38.09912 | 147.13568 | 26 ft | 3 kts | 5° |
| 2026-04-30 10:43 | -38.09873 | 147.13574 | 27 ft | 2 kts | 339° |
| 2026-04-30 10:43 | -38.09862 | 147.13505 | 26 ft | 11 kts | 279° |
| 2026-04-30 10:43 | -38.09790 | 147.13464 | 25 ft | 15 kts | 334° |
| 2026-04-30 10:44 | -38.09754 | 147.13297 | 23 ft | 24 kts | 279° |
| 2026-04-30 10:44 | -38.09733 | 147.13122 | 21 ft | 20 kts | 278° |
| 2026-04-30 10:44 | -38.09711 | 147.12941 | 20 ft | 16 kts | 278° |
| 2026-04-30 10:44 | -38.09695 | 147.12853 | 24 ft | 0 kts | 302° |
| 2026-04-30 10:45 | -38.09686 | 147.12840 | 24 ft | 0 kts | 318° |
| 2026-04-30 10:45 | -38.09674 | 147.12831 | 22 ft | 7 kts | 341° |
| 2026-04-30 10:46 | -38.09605 | 147.12837 | 23 ft | 11 kts | 9° |
| 2026-04-30 10:46 | -38.09572 | 147.12888 | 23 ft | 13 kts | 97° |
| 2026-04-30 10:46 | -38.09577 | 147.12960 | 23 ft | 0 kts | 97° |
| 2026-04-30 10:47 | -38.09580 | 147.12992 | 23 ft | 26 kts | 96° |
| 2026-04-30 10:47 | -38.09654 | 147.13602 | 28 ft | 109 kts | 99° |
| 2026-04-30 10:47 | -38.09803 | 147.14784 | 180 ft | 157 kts | 99° |
| 2026-04-30 10:47 | -38.10020 | 147.16377 | 555 ft | 202 kts | 99° |
| 2026-04-30 10:48 | -38.10259 | 147.18156 | 1246 ft | 207 kts | 97° |
| 2026-04-30 10:48 | -38.10533 | 147.19959 | 1907 ft | 214 kts | 105° |
| 2026-04-30 10:48 | -38.11462 | 147.21499 | 2339 ft | 235 kts | 149° |
| 2026-04-30 10:48 | -38.13108 | 147.21674 | 2676 ft | 253 kts | 201° |
| 2026-04-30 10:49 | -38.14279 | 147.20050 | 2954 ft | 258 kts | 254° |
| 2026-04-30 10:49 | -38.14297 | 147.17770 | 3100 ft | 266 kts | 278° |
| 2026-04-30 10:49 | -38.14027 | 147.15391 | 3181 ft | 279 kts | 280° |
| 2026-04-30 10:49 | -38.13709 | 147.12938 | 3273 ft | 285 kts | 280° |
| 2026-04-30 10:50 | -38.13354 | 147.10435 | 3368 ft | 290 kts | 284° |
| 2026-04-30 10:50 | -38.12798 | 147.08008 | 3420 ft | 290 kts | 289° |
| 2026-04-30 10:50 | -38.12140 | 147.05583 | 3488 ft | 290 kts | 290° |
| 2026-04-30 10:50 | -38.11454 | 147.03173 | 3512 ft | 291 kts | 291° |
| 2026-04-30 10:51 | -38.10731 | 147.00776 | 3519 ft | 291 kts | 292° |
| 2026-04-30 10:51 | -38.10000 | 146.98381 | 3517 ft | 291 kts | 291° |
| 2026-04-30 10:51 | -38.09839 | 146.95862 | 3452 ft | 293 kts | 255° |
| 2026-04-30 10:51 | -38.11011 | 146.93758 | 3261 ft | 301 kts | 216° |
| 2026-04-30 10:52 | -38.12832 | 146.92391 | 3044 ft | 307 kts | 209° |
| 2026-04-30 10:52 | -38.14693 | 146.91151 | 2905 ft | 305 kts | 201° |
| 2026-04-30 10:52 | -38.16743 | 146.91286 | 2466 ft | 309 kts | 148° |
| 2026-04-30 10:52 | -38.17796 | 146.93559 | 1827 ft | 314 kts | 88° |
| 2026-04-30 10:53 | -38.16779 | 146.95832 | 1424 ft | 310 kts | 31° |
| 2026-04-30 10:53 | -38.14649 | 146.96418 | 814 ft | 320 kts | 6° |
| 2026-04-30 10:53 | -38.12726 | 146.97146 | 1868 ft | 265 kts | 49° |
| 2026-04-30 10:53 | -38.13003 | 146.99107 | 2320 ft | 271 kts | 154° |
| 2026-04-30 10:54 | -38.14469 | 146.98023 | 1686 ft | 298 kts | 268° |
| 2026-04-30 10:54 | -38.13349 | 146.95965 | 822 ft | 311 kts | 326° |
| 2026-04-30 10:54 | -38.11793 | 146.94567 | 2230 ft | 83 kts | 325° |
| 2026-04-30 10:54 | -38.12319 | 146.94905 | 3273 ft | 59 kts | 148° |
| 2026-04-30 10:55 | -38.10991 | 146.93765 | 565 ft | 307 kts | 306° |
| 2026-04-30 10:55 | -38.11507 | 146.91765 | 1610 ft | 266 kts | 194° |
| 2026-04-30 10:55 | -38.12792 | 146.93029 | 1009 ft | 280 kts | 90° |
| 2026-04-30 10:55 | -38.12467 | 146.95566 | 729 ft | 271 kts | 77° |
| 2026-04-30 10:56 | -38.12447 | 146.95836 | 4231 ft | 119 kts | 257° |
| 2026-04-30 10:56 | -38.12381 | 146.96341 | 569 ft | 303 kts | 77° |
| 2026-04-30 10:56 | -38.11944 | 146.98903 | 918 ft | 263 kts | 78° |
| 2026-04-30 10:56 | -38.12176 | 147.00548 | 2971 ft | 194 kts | 112° |
| 2026-04-30 10:57 | -38.11962 | 147.02755 | 601 ft | 302 kts | 80° |
| 2026-04-30 10:57 | -38.13174 | 147.04104 | 1199 ft | 264 kts | 177° |
| 2026-04-30 10:57 | -38.14374 | 147.02528 | 1531 ft | 291 kts | 267° |
| 2026-04-30 10:57 | -38.13984 | 146.99864 | 345 ft | 324 kts | 284° |
| 2026-04-30 10:58 | -38.13405 | 146.97896 | 28 ft | 207 kts | 293° |
| 2026-04-30 10:58 | -38.12803 | 146.96311 | 28 ft | 200 kts | 304° |
| 2026-04-30 10:58 | -38.12148 | 146.95396 | 549 ft | 221 kts | 321° |
| 2026-04-30 10:58 | -38.11943 | 146.96533 | 673 ft | 231 kts | 166° |
| 2026-04-30 10:59 | -38.13559 | 146.95887 | 806 ft | 272 kts | 204° |
| 2026-04-30 10:59 | -38.15081 | 146.96232 | 1477 ft | 223 kts | 54° |
| 2026-04-30 10:59 | -38.13658 | 146.97381 | 1470 ft | 265 kts | 32° |
| 2026-04-30 10:59 | -38.12504 | 146.99237 | 1476 ft | 290 kts | 79° |
| 2026-04-30 11:00 | -38.13304 | 147.01466 | 1457 ft | 311 kts | 154° |
| 2026-04-30 11:00 | -38.15281 | 147.00824 | 1477 ft | 324 kts | 235° |
| 2026-04-30 11:00 | -38.15322 | 146.98325 | 1641 ft | 283 kts | 305° |
| 2026-04-30 11:00 | -38.13692 | 146.97057 | 1686 ft | 282 kts | 345° |
| 2026-04-30 11:01 | -38.11823 | 146.96341 | 1705 ft | 281 kts | 345° |
| 2026-04-30 11:01 | -38.10553 | 146.94725 | 1741 ft | 288 kts | 272° |
| 2026-04-30 11:01 | -38.11838 | 146.93165 | 1473 ft | 293 kts | 172° |
| 2026-04-30 11:01 | -38.13267 | 146.94906 | 635 ft | 304 kts | 117° |
| 2026-04-30 11:02 | -38.13963 | 146.96503 | 3313 ft | 38 kts | 294° |
| 2026-04-30 11:02 | -38.13773 | 146.95774 | 2373 ft | 72 kts | 117° |
| 2026-04-30 11:02 | -38.14585 | 146.97982 | 674 ft | 296 kts | 103° |
| 2026-04-30 11:02 | -38.13671 | 146.99696 | 1318 ft | 272 kts | 1° |
| 2026-04-30 11:03 | -38.12441 | 146.97949 | 561 ft | 306 kts | 281° |
| 2026-04-30 11:03 | -38.12123 | 146.95440 | 1639 ft | 212 kts | 281° |
| 2026-04-30 11:03 | -38.11422 | 146.94121 | 2385 ft | 186 kts | 289° |
| 2026-04-30 11:04 | -38.12415 | 146.90157 | 1595 ft | 269 kts | 166° |
| 2026-04-30 11:04 | -38.13364 | 146.91977 | 1233 ft | 280 kts | 90° |
| 2026-04-30 11:04 | -38.13339 | 146.94546 | 754 ft | 295 kts | 88° |
| 2026-04-30 11:04 | -38.13361 | 146.95371 | 4297 ft | 105 kts | 265° |
| 2026-04-30 11:05 | -38.13445 | 146.95378 | 1005 ft | 271 kts | 90° |
| 2026-04-30 11:05 | -38.13560 | 146.98018 | 1174 ft | 270 kts | 106° |
| 2026-04-30 11:05 | -38.15007 | 146.98800 | 2230 ft | 270 kts | 213° |
| 2026-04-30 11:05 | -38.15157 | 146.96623 | 1569 ft | 291 kts | 309° |
| 2026-04-30 11:06 | -38.13588 | 146.94952 | 904 ft | 307 kts | 324° |
| 2026-04-30 11:06 | -38.12180 | 146.93603 | 2746 ft | 43 kts | 326° |
| 2026-04-30 11:06 | -38.12668 | 146.93992 | 2946 ft | 9 kts | 333° |
| 2026-04-30 11:06 | -38.11232 | 146.92683 | 757 ft | 298 kts | 321° |
| 2026-04-30 11:07 | -38.10969 | 146.90513 | 1563 ft | 281 kts | 227° |
| 2026-04-30 11:07 | -38.12732 | 146.90585 | 877 ft | 294 kts | 127° |
| 2026-04-30 11:07 | -38.13119 | 146.93051 | 824 ft | 286 kts | 91° |
| 2026-04-30 11:07 | -38.13091 | 146.95546 | 935 ft | 276 kts | 88° |
| 2026-04-30 11:08 | -38.13014 | 146.97934 | 1007 ft | 266 kts | 85° |
| 2026-04-30 11:08 | -38.13095 | 147.00240 | 1274 ft | 274 kts | 109° |
| 2026-04-30 11:08 | -38.14615 | 147.01586 | 1363 ft | 288 kts | 178° |
| 2026-04-30 11:08 | -38.16291 | 147.00359 | 1353 ft | 293 kts | 240° |
| 2026-04-30 11:09 | -38.16497 | 146.97858 | 1291 ft | 291 kts | 292° |
| 2026-04-30 11:09 | -38.15073 | 146.96256 | 1441 ft | 277 kts | 348° |
| 2026-04-30 11:09 | -38.13305 | 146.96814 | 1713 ft | 271 kts | 43° |
| 2026-04-30 11:09 | -38.12902 | 146.99031 | 1679 ft | 281 kts | 115° |
| 2026-04-30 11:10 | -38.14618 | 146.99946 | 1539 ft | 297 kts | 196° |
| 2026-04-30 11:10 | -38.15747 | 146.97991 | 1600 ft | 293 kts | 275° |
| 2026-04-30 11:10 | -38.14495 | 146.96282 | 1207 ft | 290 kts | 351° |
| 2026-04-30 11:10 | -38.12432 | 146.96402 | 731 ft | 301 kts | 6° |
| 2026-04-30 11:11 | -38.10361 | 146.96685 | 609 ft | 300 kts | 8° |
| 2026-04-30 11:11 | -38.08316 | 146.97045 | 648 ft | 284 kts | 8° |
| 2026-04-30 11:11 | -38.07971 | 146.97125 | 4135 ft | 118 kts | 184° |
| 2026-04-30 11:11 | -38.07666 | 146.97190 | 628 ft | 299 kts | 8° |
| 2026-04-30 11:12 | -38.06216 | 146.98709 | 748 ft | 294 kts | 95° |
| 2026-04-30 11:12 | -38.07717 | 146.99731 | 727 ft | 289 kts | 202° |
| 2026-04-30 11:12 | -38.08954 | 146.97824 | 723 ft | 288 kts | 257° |
| 2026-04-30 11:12 | -38.08541 | 146.95462 | 776 ft | 286 kts | 309° |
| 2026-04-30 11:13 | -38.07074 | 146.93931 | 1374 ft | 260 kts | 328° |
| 2026-04-30 11:13 | -38.05450 | 146.93814 | 1905 ft | 256 kts | 44° |
| 2026-04-30 11:13 | -38.05252 | 146.96009 | 1398 ft | 288 kts | 119° |
| 2026-04-30 11:13 | -38.07065 | 146.97094 | 727 ft | 310 kts | 181° |
| 2026-04-30 11:14 | -38.09185 | 146.96849 | 953 ft | 277 kts | 176° |
| 2026-04-30 11:14 | -38.10936 | 146.96230 | 1472 ft | 295 kts | 219° |
| 2026-04-30 11:14 | -38.11764 | 146.94862 | 1512 ft | 297 kts | 240° |
| 2026-04-30 11:14 | -38.13247 | 146.92017 | 1768 ft | 288 kts | 212° |
| 2026-04-30 11:15 | -38.15037 | 146.92411 | 1448 ft | 289 kts | 123° |
| 2026-04-30 11:15 | -38.14922 | 146.94818 | 1026 ft | 294 kts | 55° |
| 2026-04-30 11:15 | -38.13146 | 146.96030 | 748 ft | 296 kts | 12° |
| 2026-04-30 11:15 | -38.11087 | 146.96419 | 595 ft | 299 kts | 8° |
| 2026-04-30 11:16 | -38.09045 | 146.96813 | 505 ft | 297 kts | 9° |
| 2026-04-30 11:16 | -38.07809 | 146.97053 | 1413 ft | 176 kts | 9° |
| 2026-04-30 11:16 | -38.08006 | 146.96998 | 4116 ft | 118 kts | 185° |
| 2026-04-30 11:16 | -38.07132 | 146.97175 | 518 ft | 301 kts | 1° |
| 2026-04-30 11:17 | -38.06331 | 146.94770 | 520 ft | 293 kts | 215° |
| 2026-04-30 11:17 | -38.07621 | 146.94677 | 581 ft | 284 kts | 154° |
| 2026-04-30 11:17 | -38.08831 | 146.97360 | 579 ft | 281 kts | 76° |
| 2026-04-30 11:17 | -38.07674 | 146.99216 | 1017 ft | 265 kts | 43° |
| 2026-04-30 11:18 | -38.06327 | 147.00690 | 1809 ft | 249 kts | 38° |
| 2026-04-30 11:18 | -38.05768 | 147.03691 | 1752 ft | 283 kts | 139° |
| 2026-04-30 11:18 | -38.07761 | 147.04112 | 1165 ft | 312 kts | 196° |
| 2026-04-30 11:19 | -38.09581 | 147.01544 | 816 ft | 313 kts | 265° |
| 2026-04-30 11:19 | -38.09421 | 146.99700 | 566 ft | 314 kts | 281° |
| 2026-04-30 11:19 | -38.09041 | 146.96977 | 391 ft | 310 kts | 280° |
| 2026-04-30 11:19 | -38.08870 | 146.95420 | 3004 ft | 76 kts | 108° |
| 2026-04-30 11:20 | -38.09000 | 146.96029 | 1219 ft | 220 kts | 282° |
| 2026-04-30 11:20 | -38.07938 | 146.93918 | 818 ft | 312 kts | 356° |
| 2026-04-30 11:20 | -38.06108 | 146.94887 | 841 ft | 285 kts | 50° |
| 2026-04-30 11:20 | -38.05599 | 146.97221 | 841 ft | 281 kts | 91° |
| 2026-04-30 11:21 | -38.05717 | 146.99666 | 975 ft | 275 kts | 94° |
| 2026-04-30 11:21 | -38.06987 | 147.02272 | 1090 ft | 286 kts | 160° |
| 2026-04-30 11:21 | -38.08317 | 147.02177 | 1032 ft | 295 kts | 205° |
| 2026-04-30 11:21 | -38.09368 | 147.00078 | 690 ft | 304 kts | 270° |
| 2026-04-30 11:22 | -38.09055 | 146.97470 | 467 ft | 298 kts | 278° |
| 2026-04-30 11:22 | -38.08747 | 146.94914 | 540 ft | 284 kts | 278° |
| 2026-04-30 11:22 | -38.08461 | 146.92510 | 852 ft | 273 kts | 281° |
| 2026-04-30 11:22 | -38.07542 | 146.89822 | 1873 ft | 245 kts | 339° |
| 2026-04-30 11:23 | -38.06478 | 146.90099 | 1569 ft | 264 kts | 49° |
| 2026-04-30 11:23 | -38.06620 | 146.92366 | 805 ft | 295 kts | 122° |
| 2026-04-30 11:23 | -38.08049 | 146.94813 | 4268 ft | 107 kts | 300° |
| 2026-04-30 11:24 | -38.08301 | 146.95059 | 641 ft | 308 kts | 124° |
| 2026-04-30 11:24 | -38.08666 | 146.97552 | 559 ft | 302 kts | 61° |
| 2026-04-30 11:24 | -38.07433 | 146.99554 | 1269 ft | 269 kts | 69° |
| 2026-04-30 11:25 | -38.09350 | 146.99790 | 664 ft | 305 kts | 276° |
| 2026-04-30 11:25 | -38.08970 | 146.97121 | 466 ft | 299 kts | 278° |
| 2026-04-30 11:25 | -38.08255 | 146.92138 | 1405 ft | 266 kts | 284° |
| 2026-04-30 11:26 | -38.06468 | 146.92647 | 1174 ft | 288 kts | 108° |
| 2026-04-30 11:26 | -38.07340 | 146.95027 | 564 ft | 304 kts | 115° |
| 2026-04-30 11:26 | -38.08195 | 146.96787 | 3074 ft | 186 kts | 147° |
| 2026-04-30 11:27 | -38.09232 | 146.98050 | 956 ft | 291 kts | 115° |
| 2026-04-30 11:27 | -38.09535 | 147.00635 | 764 ft | 297 kts | 59° |
| 2026-04-30 11:27 | -38.07854 | 147.01674 | 1398 ft | 271 kts | 6° |
| 2026-04-30 11:27 | -38.05974 | 147.01781 | 1713 ft | 273 kts | 353° |
| 2026-04-30 11:28 | -38.05173 | 146.97879 | 949 ft | 308 kts | 221° |
| 2026-04-30 11:28 | -38.07149 | 146.96873 | 576 ft | 312 kts | 191° |
| 2026-04-30 11:28 | -38.08298 | 146.96536 | 3698 ft | 73 kts | 10° |
| 2026-04-30 11:29 | -38.08032 | 146.96564 | 1399 ft | 233 kts | 191° |
| 2026-04-30 11:29 | -38.09927 | 146.96504 | 1840 ft | 245 kts | 164° |
| 2026-04-30 11:29 | -38.13282 | 146.94965 | 1619 ft | 300 kts | 201° |
| 2026-04-30 11:30 | -38.14794 | 146.97544 | 1749 ft | 249 kts | 46° |
| 2026-04-30 11:30 | -38.13191 | 146.98258 | 1480 ft | 258 kts | 353° |
| 2026-04-30 11:30 | -38.11630 | 146.97178 | 1438 ft | 263 kts | 303° |
| 2026-04-30 11:31 | -38.12072 | 146.95090 | 1578 ft | 266 kts | 246° |
| 2026-04-30 11:31 | -38.10808 | 146.94021 | 1770 ft | 252 kts | 349° |
| 2026-04-30 11:31 | -38.09094 | 146.93554 | 1790 ft | 254 kts | 349° |
| 2026-04-30 11:31 | -38.07312 | 146.93061 | 1805 ft | 269 kts | 348° |
| 2026-04-30 11:32 | -38.05453 | 146.92557 | 1891 ft | 277 kts | 350° |
| 2026-04-30 11:32 | -38.03058 | 146.93168 | 2111 ft | 279 kts | 48° |
| 2026-04-30 11:32 | -38.02648 | 146.94722 | 1894 ft | 288 kts | 93° |
| 2026-04-30 11:33 | -38.05693 | 146.97603 | 753 ft | 319 kts | 184° |
| 2026-04-30 11:33 | -38.07891 | 146.97221 | 488 ft | 314 kts | 188° |
| 2026-04-30 11:33 | -38.09023 | 146.95797 | 568 ft | 285 kts | 281° |
| 2026-04-30 11:33 | -38.08792 | 146.94560 | 3224 ft | 120 kts | 94° |
| 2026-04-30 11:34 | -38.09014 | 146.96050 | 445 ft | 298 kts | 101° |
| 2026-04-30 11:34 | -38.08714 | 146.98335 | 630 ft | 279 kts | 18° |
| 2026-04-30 11:34 | -38.07894 | 146.96821 | 577 ft | 280 kts | 234° |
| 2026-04-30 11:34 | -38.09247 | 146.97279 | 396 ft | 278 kts | 95° |
| 2026-04-30 11:35 | -38.09372 | 146.99610 | 1100 ft | 261 kts | 93° |
| 2026-04-30 11:35 | -38.08850 | 147.01586 | 1601 ft | 252 kts | 26° |
| 2026-04-30 11:35 | -38.07299 | 147.00679 | 1281 ft | 280 kts | 315° |
| 2026-04-30 11:35 | -38.05794 | 146.99147 | 1362 ft | 278 kts | 334° |
| 2026-04-30 11:36 | -38.04032 | 146.98143 | 1440 ft | 278 kts | 337° |
| 2026-04-30 11:36 | -38.02875 | 146.96370 | 1587 ft | 284 kts | 265° |
| 2026-04-30 11:36 | -38.04333 | 146.94920 | 1145 ft | 297 kts | 178° |
| 2026-04-30 11:36 | -38.06019 | 146.96142 | 1225 ft | 283 kts | 121° |
| 2026-04-30 11:37 | -38.06343 | 146.98472 | 1258 ft | 277 kts | 76° |
| 2026-04-30 11:37 | -38.05235 | 147.00376 | 1239 ft | 275 kts | 30° |
| 2026-04-30 11:37 | -38.03377 | 147.00602 | 1202 ft | 278 kts | 341° |
| 2026-04-30 11:37 | -38.02284 | 146.98758 | 1111 ft | 287 kts | 266° |
| 2026-04-30 11:38 | -38.03601 | 146.97122 | 920 ft | 292 kts | 185° |
| 2026-04-30 11:38 | -38.05639 | 146.97293 | 710 ft | 296 kts | 175° |
| 2026-04-30 11:38 | -38.07698 | 146.97163 | 596 ft | 296 kts | 185° |
| 2026-04-30 11:38 | -38.08925 | 146.95857 | 745 ft | 279 kts | 279° |
| 2026-04-30 11:39 | -38.08758 | 146.93993 | 2805 ft | 41 kts | 150° |
| 2026-04-30 11:39 | -38.09104 | 146.94860 | 1926 ft | 189 kts | 89° |
| 2026-04-30 11:39 | -38.09200 | 146.97339 | 350 ft | 303 kts | 84° |
| 2026-04-30 11:39 | -38.07682 | 146.98278 | 524 ft | 287 kts | 323° |
| 2026-04-30 11:40 | -38.08038 | 146.96292 | 546 ft | 277 kts | 192° |
| 2026-04-30 11:40 | -38.08986 | 146.97897 | 617 ft | 272 kts | 88° |
| 2026-04-30 11:40 | -38.09112 | 147.00140 | 1641 ft | 241 kts | 109° |
| 2026-04-30 11:40 | -38.10187 | 147.01814 | 1693 ft | 265 kts | 147° |
| 2026-04-30 11:41 | -38.11974 | 147.02422 | 1665 ft | 281 kts | 184° |
| 2026-04-30 11:41 | -38.13784 | 147.01449 | 1550 ft | 293 kts | 218° |
| 2026-04-30 11:41 | -38.15161 | 146.99517 | 1448 ft | 294 kts | 235° |
| 2026-04-30 11:41 | -38.16142 | 146.97283 | 1619 ft | 287 kts | 253° |
| 2026-04-30 11:42 | -38.15465 | 146.95242 | 1500 ft | 279 kts | 346° |
| 2026-04-30 11:42 | -38.13530 | 146.95513 | 1132 ft | 288 kts | 12° |
| 2026-04-30 11:42 | -38.11531 | 146.96058 | 697 ft | 298 kts | 13° |
| 2026-04-30 11:42 | -38.09545 | 146.96624 | 609 ft | 295 kts | 13° |
| 2026-04-30 11:43 | -38.07636 | 146.97159 | 1390 ft | 198 kts | 13° |
| 2026-04-30 11:43 | -38.07487 | 146.97159 | 4737 ft | 40 kts | 282° |
| 2026-04-30 11:43 | -38.07430 | 146.97274 | 1362 ft | 207 kts | 85° |
| 2026-04-30 11:43 | -38.08286 | 146.99634 | 565 ft | 313 kts | 153° |
| 2026-04-30 11:44 | -38.10341 | 146.99900 | 673 ft | 294 kts | 186° |
| 2026-04-30 11:44 | -38.12301 | 146.99298 | 555 ft | 288 kts | 194° |
| 2026-04-30 11:44 | -38.14216 | 146.98673 | 620 ft | 281 kts | 194° |
| 2026-04-30 11:44 | -38.16099 | 146.98067 | 925 ft | 271 kts | 194° |
| 2026-04-30 11:45 | -38.17581 | 146.96914 | 1694 ft | 253 kts | 238° |
| 2026-04-30 11:45 | -38.17461 | 146.94819 | 1614 ft | 262 kts | 323° |
| 2026-04-30 11:45 | -38.15691 | 146.94850 | 1353 ft | 276 kts | 20° |
| 2026-04-30 11:45 | -38.13849 | 146.95581 | 1246 ft | 279 kts | 11° |
| 2026-04-30 11:46 | -38.11887 | 146.95939 | 962 ft | 294 kts | 8° |
| 2026-04-30 11:46 | -38.09796 | 146.96341 | 484 ft | 312 kts | 9° |
| 2026-04-30 11:46 | -38.07656 | 146.96785 | 607 ft | 294 kts | 10° |
| 2026-04-30 11:46 | -38.06782 | 146.96607 | 4202 ft | 144 kts | 317° |
| 2026-04-30 11:47 | -38.06817 | 146.97911 | 735 ft | 319 kts | 98° |
| 2026-04-30 11:47 | -38.07535 | 147.00339 | 1459 ft | 287 kts | 131° |
| 2026-04-30 11:47 | -38.09340 | 147.01386 | 1342 ft | 293 kts | 171° |
| 2026-04-30 11:47 | -38.11367 | 147.01404 | 1426 ft | 289 kts | 181° |
| 2026-04-30 11:48 | -38.13276 | 147.00793 | 1621 ft | 288 kts | 211° |
| 2026-04-30 11:48 | -38.14660 | 146.98983 | 1702 ft | 290 kts | 241° |
| 2026-04-30 11:48 | -38.15046 | 146.96516 | 1535 ft | 291 kts | 280° |
| 2026-04-30 11:48 | -38.14206 | 146.94188 | 1260 ft | 293 kts | 317° |
| 2026-04-30 11:49 | -38.12435 | 146.94210 | 1410 ft | 279 kts | 40° |
| 2026-04-30 11:49 | -38.11813 | 146.96417 | 1237 ft | 281 kts | 128° |
| 2026-04-30 11:49 | -38.12645 | 146.95066 | 1899 ft | 260 kts | 265° |
| 2026-04-30 11:49 | -38.11283 | 146.94705 | 1868 ft | 277 kts | 50° |
| 2026-04-30 11:50 | -38.11028 | 146.97065 | 1860 ft | 301 kts | 118° |
| 2026-04-30 11:50 | -38.12365 | 146.99237 | 1570 ft | 326 kts | 143° |
| 2026-04-30 11:50 | -38.14379 | 146.99132 | 1674 ft | 294 kts | 219° |
| 2026-04-30 11:50 | -38.15074 | 146.96887 | 1706 ft | 284 kts | 281° |
| 2026-04-30 11:51 | -38.13918 | 146.95014 | 1635 ft | 279 kts | 338° |
| 2026-04-30 11:51 | -38.12047 | 146.95088 | 1655 ft | 277 kts | 23° |
| 2026-04-30 11:51 | -38.10449 | 146.96437 | 1631 ft | 275 kts | 37° |
| 2026-04-30 11:51 | -38.08963 | 146.97919 | 1638 ft | 277 kts | 39° |
| 2026-04-30 11:52 | -38.07505 | 146.99516 | 1591 ft | 277 kts | 41° |
| 2026-04-30 11:52 | -38.06063 | 147.01109 | 1496 ft | 279 kts | 43° |
| 2026-04-30 11:52 | -38.04558 | 147.02601 | 1619 ft | 274 kts | 20° |
| 2026-04-30 11:52 | -38.02864 | 147.01994 | 1570 ft | 277 kts | 307° |
| 2026-04-30 11:53 | -38.02941 | 146.99685 | 1337 ft | 287 kts | 227° |
| 2026-04-30 11:53 | -38.04768 | 146.99287 | 1193 ft | 284 kts | 153° |
| 2026-04-30 11:53 | -38.06078 | 147.01080 | 1163 ft | 280 kts | 118° |
| 2026-04-30 11:53 | -38.06963 | 147.03245 | 1079 ft | 280 kts | 116° |
| 2026-04-30 11:54 | -38.07890 | 147.05428 | 1109 ft | 280 kts | 117° |
| 2026-04-30 11:54 | -38.08792 | 147.07610 | 961 ft | 283 kts | 110° |
| 2026-04-30 11:54 | -38.09221 | 147.10071 | 516 ft | 289 kts | 97° |
| 2026-04-30 11:54 | -38.09528 | 147.12593 | 205 ft | 287 kts | 99° |
| 2026-04-30 11:55 | -38.09832 | 147.15055 | 317 ft | 263 kts | 96° |
| 2026-04-30 11:55 | -38.08983 | 147.15078 | 929 ft | 210 kts | 285° |
| 2026-04-30 11:55 | -38.08726 | 147.13416 | 756 ft | 166 kts | 278° |
| 2026-04-30 11:55 | -38.08579 | 147.11979 | 729 ft | 160 kts | 280° |
| 2026-04-30 11:56 | -38.08619 | 147.10781 | 724 ft | 130 kts | 229° |
| 2026-04-30 11:56 | -38.09334 | 147.11051 | 431 ft | 148 kts | 101° |
| 2026-04-30 11:56 | -38.09507 | 147.12366 | 173 ft | 142 kts | 98° |
| 2026-04-30 11:56 | -38.09636 | 147.13469 | 24 ft | 107 kts | 99° |
| 2026-04-30 11:57 | -38.09725 | 147.14209 | 27 ft | 59 kts | 98° |
| 2026-04-30 11:57 | -38.09787 | 147.14668 | 20 ft | 26 kts | 113° |
| 2026-04-30 11:57 | -38.09870 | 147.14690 | 18 ft | 23 kts | 233° |
| 2026-04-30 11:57 | -38.09915 | 147.14584 | 21 ft | 12 kts | 276° |
| 2026-04-30 11:58 | -38.09901 | 147.14476 | 23 ft | 13 kts | 279° |
| 2026-04-30 11:58 | -38.09887 | 147.14363 | 23 ft | 15 kts | 279° |
| 2026-04-30 11:58 | -38.09873 | 147.14243 | 24 ft | 9 kts | 278° |
| 2026-04-30 11:58 | -38.09859 | 147.14129 | 26 ft | 11 kts | 278° |
| 2026-04-30 11:59 | -38.09851 | 147.14059 | 28 ft | 10 kts | 262° |
| 2026-04-30 11:59 | -38.09910 | 147.14032 | 28 ft | 9 kts | 201° |
| 2026-04-30 11:59 | -38.09916 | 147.13947 | 28 ft | 13 kts | 278° |
| 2026-04-30 11:59 | -38.09901 | 147.13827 | 27 ft | 15 kts | 279° |
| 2026-04-30 12:00 | -38.09888 | 147.13721 | 26 ft | 11 kts | 279° |
| 2026-04-30 12:00 | -38.09878 | 147.13646 | 26 ft | 4 kts | 277° |
| 2026-04-30 12:00 | -38.09895 | 147.13633 | 27 ft | 4 kts | 190° |
| 2026-04-30 12:00 | -38.09903 | 147.13631 | 27 ft | 1 kts | 187° |
| 2026-04-30 12:01 | -38.09905 | 147.13631 | 28 ft | 0 kts | 187° |